createdAt,value
2023-04-27T00:00:12.910Z,1000.00
2023-04-27T00:01:12.869Z,1000.00
2023-04-27T00:02:12.895Z,1000.00
2023-04-27T00:03:13.082Z,1000.00
2023-04-27T00:04:12.888Z,1000.00
2023-04-27T00:05:12.884Z,1000.00
2023-04-27T00:06:12.697Z,1000.00
2023-04-27T00:07:12.590Z,1000.00
2023-04-27T00:08:12.551Z,1000.00
2023-04-27T00:09:12.881Z,1000.00
2023-04-27T00:10:12.610Z,1000.00
2023-04-27T00:11:12.617Z,1000.00
2023-04-27T00:12:12.639Z,1000.00
2023-04-27T00:13:12.629Z,1000.00
2023-04-27T00:14:12.631Z,1000.00
2023-04-27T00:15:12.654Z,1000.00
2023-04-27T00:16:12.688Z,1000.00
2023-04-27T00:17:12.693Z,1000.00
2023-04-27T00:18:12.729Z,1000.00
2023-04-27T00:19:12.832Z,1000.00
2023-04-27T00:20:12.680Z,1000.00
2023-04-27T00:21:12.674Z,1000.00
2023-04-27T00:22:12.635Z,1000.00
2023-04-27T00:23:12.607Z,1000.00
2023-04-27T00:24:12.588Z,1000.00
2023-04-27T00:25:12.598Z,1000.00
2023-04-27T00:26:12.599Z,1000.00
2023-04-27T00:27:12.589Z,1000.00
2023-04-27T00:28:12.613Z,1000.00
2023-04-27T00:29:12.710Z,1000.00
2023-04-27T00:30:12.498Z,1000.00
2023-04-27T00:31:12.465Z,1000.00
2023-04-27T00:32:12.508Z,1000.00
2023-04-27T00:33:12.410Z,1000.00
2023-04-27T00:34:12.401Z,1000.00
2023-04-27T00:35:12.410Z,1000.00
2023-04-27T00:36:12.399Z,1000.00
2023-04-27T00:37:12.409Z,1000.00
2023-04-27T00:38:12.389Z,1000.00
2023-04-27T00:39:12.582Z,1000.00
2023-04-27T00:40:12.655Z,1000.00
2023-04-27T00:41:12.846Z,1000.00
2023-04-27T00:42:13.025Z,1000.00
2023-04-27T00:43:13.226Z,1000.00
2023-04-27T00:44:13.417Z,1000.00
2023-04-27T00:45:13.645Z,1000.00
2023-04-27T00:46:13.892Z,1000.00
2023-04-27T00:47:13.997Z,1000.00
2023-04-27T00:48:14.195Z,1000.00
2023-04-27T00:49:14.611Z,1000.00
2023-04-27T00:50:14.386Z,1000.00
2023-04-27T00:51:14.375Z,1000.00
2023-04-27T00:52:14.364Z,1000.00
2023-04-27T00:53:14.365Z,1000.00
2023-04-27T00:54:14.402Z,1000.00
2023-04-27T00:55:14.422Z,1000.00
2023-04-27T00:56:14.432Z,1000.00
2023-04-27T00:57:14.425Z,1000.00
2023-04-27T00:58:14.425Z,1000.00
2023-04-27T00:59:14.664Z,1000.00
2023-04-27T01:00:14.400Z,1000.00
2023-04-27T01:01:14.440Z,1000.00
2023-04-27T01:02:14.457Z,1000.00
2023-04-27T01:03:14.534Z,1000.00
2023-04-27T01:04:14.604Z,1000.00
2023-04-27T01:05:14.296Z,1000.00
2023-04-27T01:06:14.283Z,1000.00
2023-04-27T01:07:14.275Z,1000.00
2023-04-27T01:08:14.278Z,1000.00
2023-04-27T01:09:14.543Z,1000.00
2023-04-27T01:10:14.243Z,1000.00
2023-04-27T01:11:14.345Z,1000.00
2023-04-27T01:12:14.231Z,1000.00
2023-04-27T01:13:14.219Z,1000.00
2023-04-27T01:14:14.190Z,1000.00
2023-04-27T01:15:14.185Z,1000.00
2023-04-27T01:16:14.185Z,1000.00
2023-04-27T01:17:14.200Z,1000.00
2023-04-27T01:18:14.187Z,1000.00
2023-04-27T01:19:14.319Z,1000.00
2023-04-27T01:20:14.196Z,1000.00
2023-04-27T01:21:14.192Z,1000.00
2023-04-27T01:22:14.204Z,1000.00
2023-04-27T01:23:16.645Z,1000.00
2023-04-27T01:24:14.240Z,1000.00
2023-04-27T01:25:14.213Z,1000.00
2023-04-27T01:26:14.179Z,1000.00
2023-04-27T01:27:14.170Z,1000.00
2023-04-27T01:28:14.145Z,1000.00
2023-04-27T01:29:14.314Z,1000.00
2023-04-27T01:30:14.091Z,1000.00
2023-04-27T01:31:14.069Z,1000.00
2023-04-27T01:32:14.018Z,1000.00
2023-04-27T01:33:13.998Z,1000.00
2023-04-27T01:34:13.972Z,1000.00
2023-04-27T01:35:13.939Z,1000.00
2023-04-27T01:36:13.913Z,1000.00
2023-04-27T01:37:13.882Z,1000.00
2023-04-27T01:38:13.863Z,1000.00
2023-04-27T01:39:14.029Z,1000.00
2023-04-27T01:40:13.854Z,1000.00
2023-04-27T01:41:13.786Z,1000.00
2023-04-27T01:42:13.768Z,1000.00
2023-04-27T01:43:13.729Z,1000.00
2023-04-27T01:44:13.711Z,1000.00
2023-04-27T01:45:13.692Z,1000.00
2023-04-27T01:46:13.703Z,1000.00
2023-04-27T01:47:13.644Z,1000.00
2023-04-27T01:48:13.601Z,1000.00
2023-04-27T01:49:13.766Z,1000.00
2023-04-27T01:50:13.556Z,1000.00
2023-04-27T01:51:13.527Z,1000.00
2023-04-27T01:52:13.488Z,1000.00
2023-04-27T01:53:13.464Z,1000.00
2023-04-27T01:54:13.436Z,1000.00
2023-04-27T01:55:13.404Z,1000.00
2023-04-27T01:56:13.397Z,1000.00
2023-04-27T01:57:13.362Z,1000.00
2023-04-27T01:58:13.323Z,1000.00
2023-04-27T01:59:13.408Z,1000.00
2023-04-27T02:00:13.272Z,1000.00
2023-04-27T02:01:13.289Z,1000.00
2023-04-27T02:02:13.263Z,1000.00
2023-04-27T02:03:13.284Z,1000.00
2023-04-27T02:04:13.383Z,1000.00
2023-04-27T02:05:13.157Z,1000.00
2023-04-27T02:06:13.155Z,1000.00
2023-04-27T02:07:13.109Z,1000.00
2023-04-27T02:08:13.075Z,1000.00
2023-04-27T02:09:13.232Z,1000.00
2023-04-27T02:10:13.015Z,1000.00
2023-04-27T02:11:12.995Z,1000.00
2023-04-27T02:12:12.974Z,1000.00
2023-04-27T02:13:12.923Z,1000.00
2023-04-27T02:14:12.902Z,1000.00
2023-04-27T02:15:12.885Z,1000.00
2023-04-27T02:16:12.906Z,1000.00
2023-04-27T02:17:12.834Z,1000.00
2023-04-27T02:18:12.810Z,1000.00
2023-04-27T02:19:13.117Z,1000.00
2023-04-27T02:20:12.758Z,1000.00
2023-04-27T02:21:12.742Z,1000.00
2023-04-27T02:22:12.702Z,1000.00
2023-04-27T02:23:12.704Z,1000.00
2023-04-27T02:24:12.707Z,1000.00
2023-04-27T02:25:13.104Z,1000.00
2023-04-27T02:26:12.767Z,1000.00
2023-04-27T02:27:12.713Z,1000.00
2023-04-27T02:28:12.708Z,1000.00
2023-04-27T02:29:12.988Z,1000.00
2023-04-27T02:30:12.712Z,1000.00
2023-04-27T02:31:12.758Z,1000.00
2023-04-27T02:32:12.717Z,1000.00
2023-04-27T02:33:12.714Z,1000.00
2023-04-27T02:34:12.900Z,1000.00
2023-04-27T02:35:13.008Z,1000.00
2023-04-27T02:36:13.120Z,1000.00
2023-04-27T02:37:13.313Z,1000.00
2023-04-27T02:38:13.506Z,1000.00
2023-04-27T02:39:13.898Z,1000.00
2023-04-27T02:40:13.820Z,1000.00
2023-04-27T02:41:13.967Z,1000.00
2023-04-27T02:42:14.157Z,1000.00
2023-04-27T02:43:14.231Z,1000.00
2023-04-27T02:44:14.231Z,1000.00
2023-04-27T02:45:14.229Z,1000.00
2023-04-27T02:46:14.267Z,1000.00
2023-04-27T02:47:14.230Z,1000.00
2023-04-27T02:48:14.243Z,1000.00
2023-04-27T02:49:14.671Z,1000.00
2023-04-27T02:50:14.273Z,1000.00
2023-04-27T02:51:14.309Z,1000.00
2023-04-27T02:52:14.306Z,1000.00
2023-04-27T02:53:14.311Z,1000.00
2023-04-27T02:54:14.339Z,1000.00
2023-04-27T02:55:14.345Z,1000.00
2023-04-27T02:56:14.359Z,1000.00
2023-04-27T02:57:14.392Z,1000.00
2023-04-27T02:58:14.394Z,1000.00
2023-04-27T02:59:14.608Z,1000.00
2023-04-27T03:00:14.392Z,1000.00
2023-04-27T03:01:14.440Z,1000.00
2023-04-27T03:02:14.504Z,1000.00
2023-04-27T03:03:14.565Z,1000.00
2023-04-27T03:04:14.952Z,1000.00
2023-04-27T03:05:14.538Z,1000.00
2023-04-27T03:06:14.551Z,1000.00
2023-04-27T03:07:14.581Z,1000.00
2023-04-27T03:08:14.617Z,1000.00
2023-04-27T03:09:15.060Z,1000.00
2023-04-27T03:10:14.653Z,1000.00
2023-04-27T03:11:14.653Z,1000.00
2023-04-27T03:12:14.669Z,1000.00
2023-04-27T03:13:14.697Z,1000.00
2023-04-27T03:14:14.726Z,1000.00
2023-04-27T03:15:14.746Z,1000.00
2023-04-27T03:16:14.819Z,1000.00
2023-04-27T03:17:14.799Z,1000.00
2023-04-27T03:18:14.857Z,1000.00
2023-04-27T03:19:15.053Z,1000.00
2023-04-27T03:20:14.917Z,1000.00
2023-04-27T03:21:14.927Z,1000.00
2023-04-27T03:22:14.946Z,1000.00
2023-04-27T03:23:15.080Z,1000.00
2023-04-27T03:24:15.116Z,1000.00
2023-04-27T03:25:15.158Z,1000.00
2023-04-27T03:26:15.189Z,1000.00
2023-04-27T03:27:15.213Z,1000.00
2023-04-27T03:28:15.264Z,1000.00
2023-04-27T03:29:15.484Z,1000.00
2023-04-27T03:30:15.321Z,1000.00
2023-04-27T03:31:15.509Z,1000.00
2023-04-27T03:32:15.517Z,1000.00
2023-04-27T03:33:15.527Z,1000.00
2023-04-27T03:34:15.573Z,1000.00
2023-04-27T03:35:15.622Z,1000.00
2023-04-27T03:36:15.650Z,1000.00
2023-04-27T03:37:15.677Z,1000.00
2023-04-27T03:38:15.687Z,1000.00
2023-04-27T03:39:16.099Z,1000.00
2023-04-27T03:40:15.868Z,1000.00
2023-04-27T03:41:15.889Z,1000.00
2023-04-27T03:42:15.922Z,1000.00
2023-04-27T03:43:15.954Z,1000.00
2023-04-27T03:44:15.989Z,1000.00
2023-04-27T03:45:15.990Z,1000.00
2023-04-27T03:46:16.059Z,1000.00
2023-04-27T03:47:16.040Z,1000.00
2023-04-27T03:48:16.070Z,1000.00
2023-04-27T03:49:16.295Z,1000.00
2023-04-27T03:50:16.145Z,1000.00
2023-04-27T03:51:16.135Z,1000.00
2023-04-27T03:52:16.173Z,1000.00
2023-04-27T03:53:16.201Z,1000.00
2023-04-27T03:54:16.226Z,1000.00
2023-04-27T03:55:16.252Z,1000.00
2023-04-27T03:56:16.280Z,1000.00
2023-04-27T03:57:16.309Z,1000.00
2023-04-27T03:58:16.330Z,1000.00
2023-04-27T03:59:16.652Z,1000.00
2023-04-27T04:00:16.556Z,1000.00
2023-04-27T04:01:16.586Z,1000.00
2023-04-27T04:02:16.666Z,1000.00
2023-04-27T04:03:16.963Z,1000.00
2023-04-27T04:04:16.802Z,1000.00
2023-04-27T04:05:16.751Z,1000.00
2023-04-27T04:06:16.739Z,1000.00
2023-04-27T04:07:16.775Z,1000.00
2023-04-27T04:08:16.802Z,1000.00
2023-04-27T04:09:16.832Z,1000.00
2023-04-27T04:10:16.864Z,1000.00
2023-04-27T04:11:16.896Z,1000.00
2023-04-27T04:12:16.930Z,1000.00
2023-04-27T04:13:16.972Z,1000.00
2023-04-27T04:14:17.018Z,1000.00
2023-04-27T04:15:17.060Z,1000.00
2023-04-27T04:16:17.195Z,1000.00
2023-04-27T04:17:17.134Z,1000.00
2023-04-27T04:18:17.172Z,1000.00
2023-04-27T04:19:17.228Z,1000.00
2023-04-27T04:20:17.248Z,1000.00
2023-04-27T04:21:17.278Z,1000.00
2023-04-27T04:22:17.392Z,1000.00
2023-04-27T04:23:17.558Z,1000.00
2023-04-27T04:24:17.722Z,1000.00
2023-04-27T04:25:17.933Z,1000.00
2023-04-27T04:26:18.101Z,1000.00
2023-04-27T04:27:18.285Z,1000.00
2023-04-27T04:28:18.495Z,1000.00
2023-04-27T04:29:18.666Z,1000.00
2023-04-27T04:30:18.828Z,1000.00
2023-04-27T04:31:19.086Z,1000.00
2023-04-27T04:32:19.176Z,1000.00
2023-04-27T04:33:19.383Z,1000.00
2023-04-27T04:34:19.567Z,1000.00
2023-04-27T04:35:19.745Z,1000.00
2023-04-27T04:36:19.923Z,1000.00
2023-04-27T04:37:20.131Z,1000.00
2023-04-27T04:38:20.314Z,1000.00
2023-04-27T04:39:20.495Z,1000.00
2023-04-27T04:40:20.685Z,1000.00
2023-04-27T04:41:20.877Z,1000.00
2023-04-27T04:42:21.066Z,1000.00
2023-04-27T04:43:21.256Z,1000.00
2023-04-27T04:44:21.441Z,1000.00
2023-04-27T04:45:21.570Z,1000.00
2023-04-27T04:46:21.617Z,1000.00
2023-04-27T04:47:21.675Z,1000.00
2023-04-27T04:48:21.693Z,1000.00
2023-04-27T04:49:21.743Z,1000.00
2023-04-27T04:50:21.807Z,1000.00
2023-04-27T04:51:21.840Z,1000.00
2023-04-27T04:52:21.891Z,1000.00
2023-04-27T04:53:21.960Z,1000.00
2023-04-27T04:54:22.077Z,1000.00
2023-04-27T04:55:22.062Z,1000.00
2023-04-27T04:56:22.110Z,1000.00
2023-04-27T04:57:22.165Z,1000.00
2023-04-27T04:58:22.219Z,1000.00
2023-04-27T04:59:22.271Z,1000.00
2023-04-27T05:00:22.381Z,1000.00
2023-04-27T05:01:22.410Z,1000.00
2023-04-27T05:02:22.494Z,1000.00
2023-04-27T05:03:22.482Z,1000.00
2023-04-27T05:04:22.731Z,1000.00
2023-04-27T05:05:22.571Z,1000.00
2023-04-27T05:06:22.592Z,1000.00
2023-04-27T05:07:24.931Z,1000.00
2023-04-27T05:08:22.792Z,1000.00
2023-04-27T05:09:22.802Z,1000.00
2023-04-27T05:10:22.834Z,1000.00
2023-04-27T05:11:22.883Z,1000.00
2023-04-27T05:12:22.931Z,1000.00
2023-04-27T05:13:22.974Z,1000.00
2023-04-27T05:14:23.011Z,1000.00
2023-04-27T05:15:23.061Z,1000.00
2023-04-27T05:16:23.133Z,1000.00
2023-04-27T05:17:23.193Z,1000.00
2023-04-27T05:18:23.202Z,1000.00
2023-04-27T05:19:23.245Z,1000.00
2023-04-27T05:20:23.305Z,1000.00
2023-04-27T05:21:23.374Z,1000.00
2023-04-27T05:22:23.414Z,1000.00
2023-04-27T05:23:23.449Z,1000.00
2023-04-27T05:24:23.532Z,1000.00
2023-04-27T05:25:23.724Z,1000.00
2023-04-27T05:26:23.933Z,1000.00
2023-04-27T05:27:24.129Z,1000.00
2023-04-27T05:28:24.307Z,1000.00
2023-04-27T05:29:24.507Z,1000.00
2023-04-27T05:30:24.745Z,1000.00
2023-04-27T05:31:24.920Z,1000.00
2023-04-27T05:32:25.078Z,1000.00
2023-04-27T05:33:25.240Z,1000.00
2023-04-27T05:34:25.351Z,1000.00
2023-04-27T05:35:25.380Z,1000.00
2023-04-27T05:36:25.410Z,1000.00
2023-04-27T05:37:25.452Z,1000.00
2023-04-27T05:38:25.465Z,1000.00
2023-04-27T05:39:25.489Z,1000.00
2023-04-27T05:40:25.518Z,1000.00
2023-04-27T05:41:25.567Z,1000.00
2023-04-27T05:42:25.570Z,1000.00
2023-04-27T05:43:25.600Z,1000.00
2023-04-27T05:44:25.614Z,1000.00
2023-04-27T05:45:25.634Z,1000.00
2023-04-27T05:46:25.732Z,1000.00
2023-04-27T05:47:25.723Z,1000.00
2023-04-27T05:48:25.728Z,1000.00
2023-04-27T05:49:25.770Z,1000.00
2023-04-27T05:50:25.795Z,1000.00
2023-04-27T05:51:25.832Z,1000.00
2023-04-27T05:52:25.848Z,1000.00
2023-04-27T05:53:25.969Z,1000.00
2023-04-27T05:54:26.204Z,1000.00
2023-04-27T05:55:26.355Z,1000.00
2023-04-27T05:56:26.467Z,1000.00
2023-04-27T05:57:26.467Z,1000.00
2023-04-27T05:58:26.491Z,1000.00
2023-04-27T05:59:26.505Z,1000.00
2023-04-27T06:00:26.527Z,1000.00
2023-04-27T06:01:26.544Z,1000.00
2023-04-27T06:02:26.682Z,1000.00
2023-04-27T06:03:26.773Z,1000.00
2023-04-27T06:04:26.740Z,1000.00
2023-04-27T06:05:26.719Z,1000.00
2023-04-27T06:06:26.635Z,1000.00
2023-04-27T06:07:26.672Z,1000.00
2023-04-27T06:08:26.687Z,1000.00
2023-04-27T06:09:26.722Z,1000.00
2023-04-27T06:10:26.762Z,1000.00
2023-04-27T06:11:26.795Z,1000.00
2023-04-27T06:12:26.829Z,1000.00
2023-04-27T06:13:26.838Z,1000.00
2023-04-27T06:14:26.866Z,1000.00
2023-04-27T06:15:26.913Z,1000.00
2023-04-27T06:16:26.975Z,1000.00
2023-04-27T06:17:26.945Z,1000.00
2023-04-27T06:18:26.953Z,1000.00
2023-04-27T06:19:26.976Z,1000.00
2023-04-27T06:20:27.020Z,1000.00
2023-04-27T06:21:27.051Z,1000.00
2023-04-27T06:22:27.075Z,1000.00
2023-04-27T06:23:27.092Z,1000.00
2023-04-27T06:24:27.124Z,1000.00
2023-04-27T06:25:27.443Z,1000.00
2023-04-27T06:26:28.150Z,1000.00
2023-04-27T06:27:27.330Z,1000.00
2023-04-27T06:28:27.381Z,1000.00
2023-04-27T06:29:27.347Z,1000.00
2023-04-27T06:30:28.194Z,1000.00
2023-04-27T06:31:27.457Z,1000.00
2023-04-27T06:32:28.186Z,1000.00
2023-04-27T06:33:28.205Z,1000.00
2023-04-27T06:34:27.415Z,1000.00
2023-04-27T06:35:28.403Z,1000.00
2023-04-27T06:36:27.375Z,1000.00
2023-04-27T06:37:27.365Z,1000.00
2023-04-27T06:38:27.354Z,1000.00
2023-04-27T06:39:27.335Z,1000.00
2023-04-27T06:40:27.420Z,1000.00
2023-04-27T06:41:27.287Z,1000.00
2023-04-27T06:42:27.278Z,1000.00
2023-04-27T06:43:27.350Z,1000.00
2023-04-27T06:44:27.247Z,1000.00
2023-04-27T06:45:27.224Z,1000.00
2023-04-27T06:46:27.213Z,1000.00
2023-04-27T06:47:27.173Z,1000.00
2023-04-27T06:48:27.273Z,1000.00
2023-04-27T06:49:28.575Z,1000.00
2023-04-27T06:50:27.282Z,1000.00
2023-04-27T06:51:27.324Z,1000.00
2023-04-27T06:52:27.260Z,1000.00
2023-04-27T06:53:27.299Z,1000.00
2023-04-27T06:54:27.312Z,1000.00
2023-04-27T06:55:27.357Z,1000.00
2023-04-27T06:56:27.385Z,1000.00
2023-04-27T06:57:27.424Z,1000.00
2023-04-27T06:58:27.531Z,1000.00
2023-04-27T06:59:27.520Z,1000.00
2023-04-27T07:02:27.684Z,1000.00
2023-04-27T07:03:27.781Z,1000.00
2023-04-27T07:04:27.768Z,1000.00
2023-04-27T07:05:27.724Z,1000.00
2023-04-27T07:06:27.729Z,1000.00
2023-04-27T07:07:27.744Z,1000.00
2023-04-27T07:08:27.749Z,1000.00
2023-04-27T07:09:28.820Z,1000.00
2023-04-27T07:10:27.891Z,1000.00
2023-04-27T07:11:27.890Z,1000.00
2023-04-27T07:12:27.930Z,1000.00
2023-04-27T07:13:27.971Z,1000.00
2023-04-27T07:14:27.979Z,1000.00
2023-04-27T07:15:28.086Z,1000.00
2023-04-27T07:16:28.321Z,1000.00
2023-04-27T07:17:28.511Z,1000.00
2023-04-27T07:18:28.878Z,1000.00
2023-04-27T07:19:28.906Z,1000.00
2023-04-27T07:20:29.097Z,1000.00
2023-04-27T07:21:29.290Z,1000.00
2023-04-27T07:22:29.493Z,1000.00
2023-04-27T07:23:29.687Z,1000.00
2023-04-27T07:24:29.930Z,1000.00
2023-04-27T07:25:30.114Z,1000.00
2023-04-27T07:26:30.671Z,1000.00
2023-04-27T07:27:30.547Z,1000.00
2023-04-27T07:28:30.752Z,1000.00
2023-04-27T07:29:31.169Z,1000.00
2023-04-27T07:30:31.197Z,1000.00
2023-04-27T07:31:31.034Z,1000.00
2023-04-27T07:32:31.055Z,1000.00
2023-04-27T07:33:31.107Z,1000.00
2023-04-27T07:34:41.152Z,1000.00
2023-04-27T07:35:32.099Z,1000.00
2023-04-27T07:36:31.055Z,1000.00
2023-04-27T07:37:31.044Z,1000.00
2023-04-27T07:38:31.031Z,1000.00
2023-04-27T07:39:30.997Z,1000.00
2023-04-27T07:40:31.008Z,1000.00
2023-04-27T07:41:31.065Z,1000.00
2023-04-27T07:42:31.042Z,1000.00
2023-04-27T07:43:30.982Z,1000.00
2023-04-27T07:44:30.978Z,1000.00
2023-04-27T07:45:30.992Z,1000.00
2023-04-27T07:46:30.962Z,1000.00
2023-04-27T07:47:31.008Z,1000.00
2023-04-27T07:48:31.030Z,1000.00
2023-04-27T07:49:31.126Z,1000.00
2023-04-27T07:50:31.065Z,1000.00
2023-04-27T07:51:31.087Z,1000.00
2023-04-27T07:52:31.104Z,1000.00
2023-04-27T07:53:31.103Z,1000.00
2023-04-27T07:54:31.157Z,1000.00
2023-04-27T07:55:31.184Z,1000.00
2023-04-27T07:56:31.221Z,1000.00
2023-04-27T07:57:31.264Z,1000.00
2023-04-27T07:58:31.282Z,1000.00
2023-04-27T07:59:31.305Z,1000.00
2023-04-27T08:00:31.416Z,1000.00
2023-04-27T08:01:31.400Z,1000.00
2023-04-27T08:02:32.546Z,1000.00
2023-04-27T08:03:31.545Z,1000.00
2023-04-27T08:04:31.540Z,1000.00
2023-04-27T08:05:32.031Z,1000.00
2023-04-27T08:06:31.526Z,1000.00
2023-04-27T08:07:31.768Z,1000.00
2023-04-27T08:08:31.269Z,1000.00
2023-04-27T08:09:31.229Z,1000.00
2023-04-27T08:10:31.201Z,1000.00
2023-04-27T08:11:32.093Z,1000.00
2023-04-27T08:12:31.156Z,1000.00
2023-04-27T08:13:31.160Z,1000.00
2023-04-27T08:14:31.117Z,1000.00
2023-04-27T08:15:31.111Z,1000.00
2023-04-27T08:16:31.086Z,1000.00
2023-04-27T08:17:31.118Z,1000.00
2023-04-27T08:18:31.015Z,1000.00
2023-04-27T08:19:31.000Z,1000.00
2023-04-27T08:20:30.935Z,1000.00
2023-04-27T08:21:30.984Z,1000.00
2023-04-27T08:22:31.004Z,1000.00
2023-04-27T08:23:31.000Z,1000.00
2023-04-27T08:24:30.988Z,1000.00
2023-04-27T08:25:30.988Z,1000.00
2023-04-27T08:26:31.016Z,1000.00
2023-04-27T08:27:31.685Z,1000.00
2023-04-27T08:28:31.177Z,1000.00
2023-04-27T08:29:31.435Z,1000.00
2023-04-27T08:30:31.194Z,1000.00
2023-04-27T08:31:31.277Z,1000.00
2023-04-27T08:32:31.306Z,1000.00
2023-04-27T08:33:31.268Z,1000.00
2023-04-27T08:34:31.208Z,1000.00
2023-04-27T08:35:32.180Z,1000.00
2023-04-27T08:36:31.183Z,1000.00
2023-04-27T08:37:31.173Z,1000.00
2023-04-27T08:38:31.158Z,1000.00
2023-04-27T08:39:31.125Z,1000.00
2023-04-27T08:40:31.117Z,1000.00
2023-04-27T08:41:31.092Z,1000.00
2023-04-27T08:42:31.063Z,1000.00
2023-04-27T08:43:31.047Z,1000.00
2023-04-27T08:44:30.997Z,1000.00
2023-04-27T08:45:30.968Z,1000.00
2023-04-27T08:46:30.992Z,1000.00
2023-04-27T08:47:41.820Z,1000.00
2023-04-27T08:48:31.923Z,1000.00
2023-04-27T08:49:31.840Z,1000.00
2023-04-27T08:50:30.808Z,1000.00
2023-04-27T08:51:30.793Z,1000.00
2023-04-27T08:52:30.759Z,1000.00
2023-04-27T08:53:31.595Z,1000.00
2023-04-27T08:54:30.663Z,1000.00
2023-04-27T08:55:31.148Z,1000.00
2023-04-27T08:56:30.631Z,1000.00
2023-04-27T08:57:30.534Z,1000.00
2023-04-27T08:58:30.479Z,1000.00
2023-04-27T08:59:30.436Z,1000.00
2023-04-27T09:00:30.381Z,1000.00
2023-04-27T09:01:30.339Z,1000.00
2023-04-27T09:02:30.391Z,1000.00
2023-04-27T09:03:30.358Z,1000.00
2023-04-27T09:04:30.314Z,1000.00
2023-04-27T09:05:30.178Z,1000.00
2023-04-27T09:06:30.122Z,1000.00
2023-04-27T09:07:30.055Z,1000.00
2023-04-27T09:08:30.027Z,1000.00
2023-04-27T09:09:29.973Z,1000.00
2023-04-27T09:10:30.029Z,1000.00
2023-04-27T09:11:30.008Z,1000.00
2023-04-27T09:12:31.071Z,1000.00
2023-04-27T09:13:30.014Z,1000.00
2023-04-27T09:14:30.025Z,1000.00
2023-04-27T09:15:30.111Z,1000.00
2023-04-27T09:16:30.049Z,1000.00
2023-04-27T09:17:30.057Z,1000.00
2023-04-27T09:18:30.059Z,1000.00
2023-04-27T09:19:30.035Z,1000.00
2023-04-27T09:20:30.032Z,1000.00
2023-04-27T09:21:30.068Z,1000.00
2023-04-27T09:22:30.708Z,1000.00
2023-04-27T09:23:31.160Z,1000.00
2023-04-27T09:24:30.152Z,1000.00
2023-04-27T09:25:30.182Z,1000.00
2023-04-27T09:26:30.694Z,1000.00
2023-04-27T09:27:30.145Z,1000.00
2023-04-27T09:28:30.190Z,1000.00
2023-04-27T09:29:31.105Z,1000.00
2023-04-27T09:30:30.043Z,1000.00
2023-04-27T09:31:30.072Z,1000.00
2023-04-27T09:32:29.942Z,1000.00
2023-04-27T09:33:29.866Z,1000.00
2023-04-27T09:34:29.809Z,1000.00
2023-04-27T09:35:29.803Z,1000.00
2023-04-27T09:36:29.731Z,1000.00
2023-04-27T09:37:30.662Z,1000.00
2023-04-27T09:38:29.628Z,1000.00
2023-04-27T09:39:29.561Z,1000.00
2023-04-27T09:40:29.661Z,1000.00
2023-04-27T09:41:31.312Z,1000.00
2023-04-27T09:42:30.188Z,1000.00
2023-04-27T09:43:29.352Z,1000.00
2023-04-27T09:44:29.286Z,1000.00
2023-04-27T09:45:29.273Z,1000.00
2023-04-27T09:46:29.316Z,1000.00
2023-04-27T09:47:29.767Z,1000.00
2023-04-27T09:48:29.700Z,1000.00
2023-04-27T09:49:28.990Z,1000.00
2023-04-27T09:50:28.958Z,1000.00
2023-04-27T09:51:28.856Z,1000.00
2023-04-27T09:52:28.815Z,1000.00
2023-04-27T09:53:28.759Z,1000.00
2023-04-27T09:54:28.665Z,1000.00
2023-04-27T09:55:28.654Z,1000.00
2023-04-27T09:56:28.555Z,1000.00
2023-04-27T09:57:28.530Z,1000.00
2023-04-27T09:58:28.483Z,1000.00
2023-04-27T09:59:28.464Z,1000.00
2023-04-27T10:00:28.387Z,1000.00
2023-04-27T10:01:28.332Z,1000.00
2023-04-27T10:02:29.556Z,1000.00
2023-04-27T10:03:28.364Z,1000.00
2023-04-27T10:04:28.413Z,1000.00
2023-04-27T10:05:28.343Z,1000.00
2023-04-27T10:06:28.071Z,1000.00
2023-04-27T10:07:27.983Z,1000.00
2023-04-27T10:08:27.913Z,1000.00
2023-04-27T10:09:27.841Z,1000.00
2023-04-27T10:10:28.001Z,1000.00
2023-04-27T10:11:27.699Z,1000.00
2023-04-27T10:12:27.626Z,1000.00
2023-04-27T10:13:27.549Z,1000.00
2023-04-27T10:14:27.475Z,1000.00
2023-04-27T10:15:27.399Z,1000.00
2023-04-27T10:16:27.369Z,1000.00
2023-04-27T10:17:27.318Z,1000.00
2023-04-27T10:18:27.182Z,1000.00
2023-04-27T10:19:27.127Z,1000.00
2023-04-27T10:20:27.057Z,1000.00
2023-04-27T10:21:26.995Z,1000.00
2023-04-27T10:22:26.940Z,1000.00
2023-04-27T10:23:26.846Z,1000.00
2023-04-27T10:24:26.804Z,1000.00
2023-04-27T10:25:26.798Z,1000.00
2023-04-27T10:26:26.689Z,1000.00
2023-04-27T10:27:26.591Z,1000.00
2023-04-27T10:28:27.205Z,1000.00
2023-04-27T10:29:26.459Z,1000.00
2023-04-27T10:30:26.415Z,1000.00
2023-04-27T10:31:26.393Z,1000.00
2023-04-27T10:32:26.418Z,1000.00
2023-04-27T10:33:26.336Z,1000.00
2023-04-27T10:34:26.345Z,1000.00
2023-04-27T10:35:26.327Z,1000.00
2023-04-27T10:36:26.334Z,1000.00
2023-04-27T10:37:26.315Z,1000.00
2023-04-27T10:38:26.296Z,1000.00
2023-04-27T10:39:39.737Z,1000.00
2023-04-27T10:40:27.206Z,1000.00
2023-04-27T10:41:26.134Z,1000.00
2023-04-27T10:42:26.060Z,1000.00
2023-04-27T10:43:26.007Z,1000.00
2023-04-27T10:44:25.889Z,1000.00
2023-04-27T10:45:25.876Z,1000.00
2023-04-27T10:46:25.736Z,1000.00
2023-04-27T10:47:25.636Z,1000.00
2023-04-27T10:48:25.589Z,1000.00
2023-04-27T10:49:25.483Z,1000.00
2023-04-27T10:50:25.430Z,1000.00
2023-04-27T10:51:25.364Z,1000.00
2023-04-27T10:52:25.222Z,1000.00
2023-04-27T10:53:25.145Z,1000.00
2023-04-27T10:54:25.109Z,1000.00
2023-04-27T10:55:25.014Z,1000.00
2023-04-27T10:56:24.998Z,1000.00
2023-04-27T10:57:24.915Z,1000.00
2023-04-27T10:58:34.653Z,1000.00
2023-04-27T10:59:25.788Z,1000.00
2023-04-27T11:00:24.698Z,1000.00
2023-04-27T11:01:24.621Z,1000.00
2023-04-27T11:02:24.582Z,1000.00
2023-04-27T11:03:24.496Z,1000.00
2023-04-27T11:04:24.376Z,1000.00
2023-04-27T11:05:24.247Z,1000.00
2023-04-27T11:06:24.154Z,1000.00
2023-04-27T11:07:24.060Z,1000.00
2023-04-27T11:08:24.000Z,1000.00
2023-04-27T11:09:23.858Z,1000.00
2023-04-27T11:10:23.763Z,1000.00
2023-04-27T11:11:23.664Z,1000.00
2023-04-27T11:12:23.600Z,1000.00
2023-04-27T11:13:23.501Z,1000.00
2023-04-27T11:14:23.399Z,1000.00
2023-04-27T11:15:23.290Z,1000.00
2023-04-27T11:16:23.255Z,1000.00
2023-04-27T11:17:23.123Z,1000.00
2023-04-27T11:18:23.008Z,1000.00
2023-04-27T11:19:22.904Z,1000.00
2023-04-27T11:20:22.793Z,1000.00
2023-04-27T11:21:22.701Z,1000.00
2023-04-27T11:22:22.593Z,1000.00
2023-04-27T11:23:22.496Z,1000.00
2023-04-27T11:24:22.404Z,1000.00
2023-04-27T11:25:22.314Z,1000.00
2023-04-27T11:26:22.225Z,1000.00
2023-04-27T11:27:22.174Z,1000.00
2023-04-27T11:28:22.044Z,1000.00
2023-04-27T11:29:21.957Z,1000.00
2023-04-27T11:30:21.838Z,1000.00
2023-04-27T11:31:21.793Z,1000.00
2023-04-27T11:32:21.669Z,1000.00
2023-04-27T11:33:21.641Z,1000.00
2023-04-27T11:34:22.588Z,1000.00
2023-04-27T11:35:21.600Z,1000.00
2023-04-27T11:36:21.573Z,1000.00
2023-04-27T11:37:21.506Z,1000.00
2023-04-27T11:38:21.455Z,1000.00
2023-04-27T11:39:21.510Z,1000.00
2023-04-27T11:40:23.222Z,1000.00
2023-04-27T11:41:21.145Z,1000.00
2023-04-27T11:42:21.045Z,1000.00
2023-04-27T11:43:20.921Z,1000.00
2023-04-27T11:44:20.891Z,1000.00
2023-04-27T11:45:20.758Z,1000.00
2023-04-27T11:46:20.651Z,1000.00
2023-04-27T11:47:20.528Z,1000.00
2023-04-27T11:48:20.521Z,1000.00
2023-04-27T11:49:20.750Z,777.93
2023-04-27T11:50:20.932Z,718.31
2023-04-27T11:51:21.054Z,792.63
2023-04-27T11:52:21.122Z,1000.00
2023-04-27T11:53:21.415Z,1000.00
2023-04-27T11:54:21.519Z,1000.00
2023-04-27T11:55:21.655Z,689.54
2023-04-27T11:56:21.791Z,581.31
2023-04-27T11:57:21.917Z,488.45
2023-04-27T11:58:21.944Z,477.86
2023-04-27T11:59:22.194Z,512.69
2023-04-27T12:00:22.316Z,567.98
2023-04-27T12:01:34.849Z,666.59
2023-04-27T12:02:23.415Z,643.08
2023-04-27T12:03:22.394Z,694.58
2023-04-27T12:04:22.322Z,810.38
2023-04-27T12:05:22.122Z,1000.00
2023-04-27T12:06:32.778Z,1000.00
2023-04-27T12:07:22.801Z,679.27
2023-04-27T12:08:21.677Z,724.42